ADDS METAR Data INFO
IDs: Format: Raw Decoded Include TAF

Data at: 1359 UTC 17 Dec 2017

KPRS 171355Z AUTO 36006KT 10SM CLR 05/02 A3004 RMK AO2 T00510020
KPRS 171335Z AUTO 36005KT 10SM CLR 06/02 A3004 RMK AO2 T00560022
KPRS 171315Z AUTO 35005KT 10SM CLR 06/02 A3004 RMK AO2 T00560022
KPRS 171255Z AUTO 36004KT 10SM CLR 06/02 A3002 RMK AO2 T00560022
KPRS 171235Z AUTO 01004KT 10SM CLR 06/02 A3001 RMK AO2 T00570023
KPRS 171215Z AUTO 00000KT 10SM CLR 06/02 A3000 RMK AO2 T00560024
KPRS 171155Z AUTO 05003KT 10SM CLR 06/03 A3000 RMK AO2 T00590028 10095 20057
KPRS 171135Z AUTO 02004KT 10SM CLR 06/03 A3000 RMK AO2 T00600030
KPRS 171115Z AUTO 05004KT 10SM CLR 06/03 A3000 RMK AO2 T00610026
KPRS 171055Z AUTO 00000KT 10SM CLR 06/03 A3000 RMK AO2 T00580027
KPRS 171035Z AUTO 00000KT 10SM CLR 07/03 A3000 RMK AO2 LTG DSNT W T00670027
KPRS 171015Z AUTO 01004KT 10SM CLR 07/03 A2999 RMK AO2 T00680028
KPRS 170955Z AUTO 01004KT 10SM CLR 07/03 A3000 RMK AO2 LTG DSNT W T00690028
KPRS 170935Z AUTO 35004KT 10SM CLR 07/03 A3000 RMK AO2 LTG DSNT W T00700031
KPRS 170915Z AUTO 25004KT 10SM CLR 07/03 A3000 RMK AO2 T00720032
KPRS 170855Z AUTO 35003KT 10SM CLR 09/03 A2999 RMK AO2 T00900032
KPRS 170835Z AUTO 35008KT 10SM CLR 09/03 A2998 RMK AO2 T00890032
KPRS 170815Z AUTO 02007KT 10SM CLR 09/03 A2999 RMK AO2 T00890034
KPRS 170755Z AUTO 03005KT 10SM CLR 09/04 A2999 RMK AO2 T00900036
KPRS 170735Z AUTO 03003KT 10SM CLR 09/03 A2999 RMK AO2 T00870033
KPRS 170715Z AUTO 36004KT 10SM CLR 09/03 A2999 RMK AO2 T00850032
KPRS 170655Z AUTO 35005KT 10SM CLR 08/03 A2998 RMK AO2 T00830031
KPRS 170635Z AUTO 36005KT 10SM CLR 08/03 A2998 RMK AO2 T00800031
KPRS 170615Z AUTO 01007KT 10SM CLR 08/03 A2998 RMK AO2 T00780032
KPRS 170555Z AUTO 02005KT 10SM CLR 08/04 A2999 RMK AO2 T00820035 10133 20075 401450025
KPRS 170535Z AUTO 03004KT 10SM CLR 08/03 A2998 RMK AO2 T00800032
KPRS 170515Z AUTO 04004KT 10SM CLR 08/03 A2997 RMK AO2 T00770030
KPRS 170455Z AUTO 00000KT 10SM CLR 08/03 A2997 RMK AO2 T00810030
KPRS 170435Z AUTO 02004KT 10SM CLR 08/03 A2996 RMK AO2 T00830030
KPRS 170415Z AUTO 00000KT 10SM CLR 09/03 A2996 RMK AO2 T00860030
KPRS 170355Z AUTO 00000KT 10SM CLR 08/03 A2995 RMK AO2 T00810031
KPRS 170335Z AUTO 00000KT 10SM CLR 09/03 A2994 RMK AO2 T00850031
KPRS 170315Z AUTO 00000KT 10SM CLR 08/03 A2994 RMK AO2 T00820030
KPRS 170255Z AUTO 02003KT 10SM CLR 10/03 A2993 RMK AO2 T00950031
KPRS 170235Z AUTO 36006KT 10SM CLR 10/03 A2994 RMK AO2 T00960031
KPRS 170215Z AUTO 36007KT 10SM CLR 09/03 A2993 RMK AO2 T00930030
KPRS 170155Z AUTO 36007KT 10SM CLR 10/03 A2993 RMK AO2 T00960030
KPRS 170135Z AUTO 35007KT 10SM CLR 10/03 A2993 RMK AO2 T00950030
KPRS 170115Z AUTO 36005KT 10SM CLR 10/03 A2992 RMK AO2 T01020030
KPRS 170055Z AUTO 03005KT 10SM CLR 11/03 A2991 RMK AO2 T01110032
KPRS 170035Z AUTO 03003KT 10SM CLR 12/03 A2991 RMK AO2 T01160032
KPRS 170015Z AUTO 00000KT 10SM CLR 13/03 A2991 RMK AO2 T01250030
KPRS 162355Z AUTO 00000KT 10SM CLR 13/03 A2990 RMK AO2 T01340029 10145 20088
KPRS 162335Z AUTO 00000KT 10SM CLR 14/03 A2990 RMK AO2 T01420028
KPRS 162315Z AUTO 00000KT 10SM CLR 14/03 A2990 RMK AO2 T01410027
KPRS 162255Z AUTO 00000KT 10SM CLR 14/03 A2991 RMK AO2 T01430028
KPRS 162235Z AUTO 26003KT 10SM SCT050 15/03 A2990 RMK AO2 T01450027
KPRS 162215Z AUTO 25003KT 10SM OVC050 14/03 A2990 RMK AO2 T01400027
KPRS 162155Z AUTO 00000KT 10SM OVC050 14/03 A2990 RMK AO2 T01430027
KPRS 162135Z AUTO 21005KT 10SM BKN050 14/03 A2990 RMK AO2 T01420026
KPRS 162115Z AUTO 15003KT 10SM OVC050 14/02 A2990 RMK AO2 T01350024
KPRS 162055Z AUTO 14003KT 10SM OVC050 13/02 A2991 RMK AO2 T01250021
KPRS 162035Z AUTO 00000KT 10SM OVC050 12/02 A2992 RMK AO2 T01210019
KPRS 162015Z AUTO 00000KT 10SM OVC050 12/02 A2993 RMK AO2 T01170017
KPRS 161955Z AUTO 16005KT 10SM BKN050 12/02 A2993 RMK AO2 T01160015
KPRS 161935Z AUTO 00000KT 10SM SCT050 11/01 A2994 RMK AO2 T01120012
KPRS 161915Z AUTO 00000KT 10SM SCT044 SCT070 11/01 A2996 RMK AO2 T01120012
KPRS 161855Z AUTO 00000KT 10SM SCT042 BKN060 OVC070 10/00 A2997 RMK AO2 T00980003
KPRS 161835Z AUTO 12003KT 10SM OVC060 09/00 A2999 RMK AO2 T00940000
KPRS 161815Z AUTO 14003KT 10SM OVC060 09/00 A3001 RMK AO2 T00900000
KPRS 161755Z AUTO 10003KT 10SM OVC075 09/00 A3003 RMK AO2 T00870000 10089 20028
KPRS 161735Z AUTO 00000KT 10SM SCT040 OVC075 09/00 A3004 RMK AO2 T00850000
KPRS 161715Z AUTO 14004KT 10SM SCT040 BKN075 OVC085 08/00 A3005 RMK AO2 T00820000
KPRS 161655Z AUTO 09005KT 10SM BKN075 OVC090 08/00 A3005 RMK AO2 T00790000
KPRS 161635Z AUTO 13003KT 10SM OVC075 07/00 A3006 RMK AO2 T00700001
KPRS 161615Z AUTO 13003KT 10SM BKN075 BKN085 07/00 A3007 RMK AO2 T00710000
KPRS 161555Z AUTO 00000KT 10SM SCT039 BKN075 BKN085 06/00 A3006 RMK AO2 T00571002
KPRS 161535Z AUTO 00000KT 10SM OVC039 05/00 A3005 RMK AO2 T00521001
KPRS 161515Z AUTO 00000KT 10SM BKN041 BKN047 BKN075 05/M01 A3006 RMK AO2 T00521006
KPRS 161455Z AUTO 00000KT 10SM SCT043 SCT075 BKN090 05/M01 A3007 RMK AO2 T00461008
KPRS 161435Z AUTO 00000KT 10SM SCT042 SCT085 BKN090 05/M01 A3007 RMK AO2 T00471010
KPRS 161415Z AUTO 00000KT 10SM BKN042 OVC075 04/M01 A3007 RMK AO2 T00441013
KPRS 161355Z AUTO 35004KT 10SM OVC044 04/M02 A3007 RMK AO2 T00401017
KPRS 161335Z AUTO 35004KT 10SM BKN046 04/M02 A3007 RMK AO2 T00361018
KPRS 161315Z AUTO 36006KT 10SM BKN046 OVC075 04/M02 A3007 RMK AO2 T00351021
KPRS 161255Z AUTO 01003KT 10SM SCT046 OVC075 04/M02 A3008 RMK AO2 T00351021
KPRS 161235Z AUTO 00000KT 10SM SCT075 03/M02 A3008 RMK AO2 T00301021
KPRS 161215Z AUTO 35004KT 10SM SCT075 03/M02 A3007 RMK AO2 T00301023
KPRS 161155Z AUTO 36004KT 10SM SCT075 03/M02 A3007 RMK AO2 T00281023 10067 20025
KPRS 161135Z AUTO 36004KT 10SM CLR 03/M02 A3008 RMK AO2 T00251025
KPRS 161115Z AUTO 01003KT 10SM CLR 03/M02 A3009 RMK AO2 T00281025
KPRS 161055Z AUTO 00000KT 10SM CLR 03/M02 A3010 RMK AO2 T00301022
KPRS 161035Z AUTO 00000KT 10SM CLR 04/M02 A3011 RMK AO2 T00361024
KPRS 161015Z AUTO 05003KT 10SM CLR 04/M03 A3011 RMK AO2 T00351026
KPRS 160955Z AUTO 00000KT 10SM CLR 04/M03 A3011 RMK AO2 T00421027
KPRS 160935Z AUTO 02004KT 10SM CLR 05/M03 A3012 RMK AO2 T00451027
KPRS 160915Z AUTO 01005KT 10SM CLR 05/M03 A3012 RMK AO2 T00451027
KPRS 160855Z AUTO 36007KT 10SM CLR 05/M03 A3012 RMK AO2 T00461028
KPRS 160835Z AUTO 36008KT 10SM CLR 05/M03 A3013 RMK AO2 T00471028
KPRS 160815Z AUTO 36008KT 10SM CLR 05/M03 A3013 RMK AO2 T00471026
KPRS 160755Z AUTO 36008KT 10SM CLR 05/M03 A3014 RMK AO2 T00461026
KPRS 160735Z AUTO 36007KT 10SM CLR 05/M03 A3015 RMK AO2 T00471026
KPRS 160715Z AUTO 36006KT 10SM CLR 05/M03 A3017 RMK AO2 T00451026
KPRS 160655Z AUTO 01004KT 10SM CLR 06/M03 A3018 RMK AO2 T00561027
KPRS 160635Z AUTO 02005KT 10SM CLR 07/M03 A3018 RMK AO2 T00651028
KPRS 160615Z AUTO 03006KT 10SM CLR 07/M03 A3020 RMK AO2 T00661030
KPRS 160555Z AUTO 02006KT 10SM CLR 06/M03 A3020 RMK AO2 T00641030 10117 20060 401370060
KPRS 160535Z AUTO 01007KT 10SM CLR 06/M03 A3021 RMK AO2 T00601030
KPRS 160515Z AUTO 01007KT 10SM CLR 07/M03 A3021 RMK AO2 T00651031
KPRS 160455Z AUTO 36007KT 10SM CLR 06/M03 A3021 RMK AO2 T00631031
KPRS 160435Z AUTO 36008KT 10SM CLR 07/M03 A3021 RMK AO2 T00681032
KPRS 160415Z AUTO 36006KT 10SM CLR 07/M03 A3021 RMK AO2 T00651030
KPRS 160355Z AUTO 02006KT 10SM CLR 08/M03 A3021 RMK AO2 T00801032
KPRS 160335Z AUTO 02006KT 10SM CLR 08/M03 A3021 RMK AO2 T00831033
KPRS 160315Z AUTO 03008KT 10SM CLR 08/M03 A3021 RMK AO2 T00831033
KPRS 160255Z AUTO 04007KT 10SM CLR 08/M03 A3022 RMK AO2 T00841033
KPRS 160235Z AUTO 03006KT 10SM CLR 08/M03 A3022 RMK AO2 T00841033
KPRS 160215Z AUTO 03006KT 10SM CLR 08/M03 A3022 RMK AO2 T00831031